createdAt,value
2022-12-11T00:01:32.452Z,86.59
2022-12-11T00:03:58.829Z,86.24
2022-12-11T00:06:25.263Z,86.52
2022-12-11T00:08:53.959Z,86.73
2022-12-11T00:11:21.595Z,86.99
2022-12-11T00:13:48.048Z,87.59
2022-12-11T00:16:15.413Z,87.70
2022-12-11T00:18:41.813Z,87.48
2022-12-11T00:21:11.119Z,87.96
2022-12-11T00:23:38.064Z,87.76
2022-12-11T00:26:13.735Z,88.01
2022-12-11T00:28:41.641Z,87.41
2022-12-11T00:31:11.354Z,87.17
2022-12-11T00:33:37.711Z,87.56
2022-12-11T00:36:04.310Z,87.79
2022-12-11T00:38:30.694Z,88.18
2022-12-11T00:41:00.030Z,87.65
2022-12-11T00:43:26.374Z,88.01
2022-12-11T00:45:53.040Z,87.92
2022-12-11T00:48:19.493Z,88.32
2022-12-11T00:50:46.321Z,88.66
2022-12-11T00:53:12.685Z,88.10
2022-12-11T00:55:41.197Z,88.15
2022-12-11T00:58:08.483Z,88.06
2022-12-11T01:00:35.254Z,88.07
2022-12-11T01:03:01.810Z,88.13
2022-12-11T01:05:28.347Z,88.62
2022-12-11T01:07:54.933Z,88.19
2022-12-11T01:10:24.727Z,88.76
2022-12-11T01:12:51.083Z,88.61
2022-12-11T01:15:18.875Z,88.19
2022-12-11T01:17:45.348Z,88.31
2022-12-11T01:20:12.312Z,87.96
2022-12-11T01:22:39.394Z,87.93
2022-12-11T01:25:06.185Z,88.02
2022-12-11T01:27:32.608Z,88.58
2022-12-11T01:29:59.213Z,87.17
2022-12-11T01:32:25.600Z,87.21
2022-12-11T01:34:51.982Z,87.00
2022-12-11T01:37:18.337Z,87.60
2022-12-11T01:39:50.265Z,87.44
2022-12-11T01:42:20.529Z,87.64
2022-12-11T01:44:46.811Z,86.58
2022-12-11T01:47:13.924Z,86.62
2022-12-11T01:49:41.652Z,86.60
2022-12-11T01:52:13.952Z,86.33
2022-12-11T01:54:41.970Z,86.58
2022-12-11T01:57:11.031Z,85.57
2022-12-11T01:59:39.686Z,86.16
2022-12-11T02:02:20.358Z,86.16
2022-12-11T02:04:48.565Z,86.11
2022-12-11T02:07:15.508Z,86.69
2022-12-11T02:09:44.961Z,86.70
2022-12-11T02:12:16.513Z,86.66
2022-12-11T02:14:48.719Z,87.15
2022-12-11T02:17:25.948Z,87.17
2022-12-11T02:20:02.151Z,86.60
2022-12-11T02:22:48.459Z,86.16
2022-12-11T02:25:32.968Z,86.34
2022-12-11T02:28:31.793Z,86.62
2022-12-11T02:31:07.112Z,85.95
2022-12-11T02:33:43.786Z,85.97
2022-12-11T02:36:10.539Z,84.94
2022-12-11T02:38:41.700Z,85.47
2022-12-11T02:41:10.448Z,85.55
2022-12-11T02:43:38.213Z,84.92
2022-12-11T02:46:07.344Z,85.27
2022-12-11T02:48:34.685Z,84.94
2022-12-11T02:51:03.086Z,84.19
2022-12-11T02:53:32.475Z,83.97
2022-12-11T02:56:06.587Z,84.37
2022-12-11T02:58:34.336Z,85.02
2022-12-11T03:01:00.914Z,85.20
2022-12-11T03:03:30.676Z,84.46
2022-12-11T03:05:57.058Z,84.14
2022-12-11T03:08:23.452Z,84.53
2022-12-11T03:10:50.204Z,83.94
2022-12-11T03:13:19.267Z,84.41
2022-12-11T03:16:24.054Z,84.16
2022-12-11T03:19:05.852Z,84.39
2022-12-11T03:21:38.885Z,84.34
2022-12-11T03:24:13.692Z,84.01
2022-12-11T03:26:43.890Z,82.68
2022-12-11T03:29:15.651Z,83.38
2022-12-11T03:32:13.506Z,83.75
2022-12-11T03:35:01.952Z,83.49
2022-12-11T03:37:32.746Z,82.66
2022-12-11T03:40:06.334Z,82.96
2022-12-11T03:42:34.001Z,83.83
2022-12-11T03:45:04.451Z,84.58
2022-12-11T03:47:32.305Z,84.29
2022-12-11T03:50:00.653Z,84.51
2022-12-11T03:52:29.088Z,84.99
2022-12-11T03:54:59.704Z,84.90
2022-12-11T03:57:30.417Z,85.49
2022-12-11T03:59:57.303Z,84.81
2022-12-11T04:02:23.958Z,84.83
2022-12-11T04:04:50.420Z,83.81
2022-12-11T04:07:17.002Z,84.24
2022-12-11T04:09:43.399Z,84.29
2022-12-11T04:12:09.791Z,84.03
2022-12-11T04:14:54.805Z,84.15
2022-12-11T04:17:39.617Z,83.88
2022-12-11T04:20:25.295Z,83.67
2022-12-11T04:23:10.179Z,83.04
2022-12-11T04:25:36.561Z,83.36
2022-12-11T04:28:02.971Z,84.19
2022-12-11T04:30:33.951Z,84.12
2022-12-11T04:33:00.737Z,84.32
2022-12-11T04:35:27.085Z,84.34
2022-12-11T04:37:53.487Z,83.36
2022-12-11T04:40:20.538Z,83.92
2022-12-11T04:42:47.036Z,84.72
2022-12-11T04:45:13.810Z,85.33
2022-12-11T04:47:40.946Z,86.21
2022-12-11T04:50:09.900Z,86.00
2022-12-11T04:52:36.290Z,85.23
2022-12-11T04:55:05.401Z,85.77
2022-12-11T04:57:31.771Z,85.48
2022-12-11T04:59:58.155Z,85.23
2022-12-11T05:02:24.572Z,84.82
2022-12-11T05:04:50.940Z,84.54
2022-12-11T05:07:17.327Z,85.34
2022-12-11T05:09:43.690Z,84.21
2022-12-11T05:12:10.140Z,85.04
2022-12-11T05:14:36.550Z,85.21
2022-12-11T05:17:03.040Z,85.14
2022-12-11T05:19:29.461Z,85.00
2022-12-11T05:21:55.823Z,85.75
2022-12-11T05:24:22.254Z,86.29
2022-12-11T05:26:48.633Z,86.72
2022-12-11T05:29:15.001Z,86.45
2022-12-11T05:31:41.487Z,86.45
2022-12-11T05:34:08.129Z,87.00
2022-12-11T05:36:34.865Z,87.38
2022-12-11T05:39:01.839Z,86.29
2022-12-11T05:41:30.158Z,86.86
2022-12-11T05:43:56.736Z,86.80
2022-12-11T05:46:25.963Z,86.71
2022-12-11T05:48:56.283Z,87.02
2022-12-11T05:51:23.486Z,86.51
2022-12-11T05:53:52.275Z,87.04
2022-12-11T05:56:21.594Z,86.63
2022-12-11T05:58:49.212Z,86.55
2022-12-11T06:01:33.747Z,86.44
2022-12-11T06:04:01.116Z,86.29
2022-12-11T06:06:28.583Z,86.94
2022-12-11T06:08:57.583Z,86.76
2022-12-11T06:11:25.808Z,87.15
2022-12-11T06:13:52.779Z,87.09
2022-12-11T06:16:19.548Z,87.07
2022-12-11T06:18:46.362Z,86.79
2022-12-11T06:21:19.420Z,86.60
2022-12-11T06:23:47.267Z,86.79
2022-12-11T06:26:15.316Z,86.10
2022-12-11T06:28:41.808Z,85.77
2022-12-11T06:31:08.397Z,85.71
2022-12-11T06:33:35.606Z,86.12
2022-12-11T06:36:07.457Z,86.36
2022-12-11T06:38:33.865Z,86.32
2022-12-11T06:41:04.629Z,86.00
2022-12-11T06:43:38.725Z,86.07
2022-12-11T06:46:16.382Z,85.99
2022-12-11T06:48:43.970Z,85.98
2022-12-11T06:51:15.947Z,86.90
2022-12-11T06:53:42.699Z,86.94
2022-12-11T06:56:11.664Z,86.46
2022-12-11T06:58:39.940Z,86.45
2022-12-11T07:01:15.112Z,86.04
2022-12-11T07:03:41.584Z,86.02
2022-12-11T07:06:08.095Z,85.05
2022-12-11T07:08:34.877Z,85.24
2022-12-11T07:11:09.656Z,85.40
2022-12-11T07:13:36.166Z,85.08
2022-12-11T07:16:04.550Z,84.56
2022-12-11T07:18:34.536Z,84.61
2022-12-11T07:21:01.059Z,84.57
2022-12-11T07:23:28.383Z,84.64
2022-12-11T07:25:55.547Z,84.90
2022-12-11T07:28:22.170Z,85.08
2022-12-11T07:30:48.929Z,85.31
2022-12-11T07:33:15.963Z,84.30
2022-12-11T07:35:42.588Z,84.08
2022-12-11T07:38:08.973Z,83.91
2022-12-11T07:40:35.317Z,83.52
2022-12-11T07:43:01.681Z,83.76
2022-12-11T07:45:28.175Z,83.84
2022-12-11T07:47:54.584Z,84.33
2022-12-11T07:50:21.008Z,83.91
2022-12-11T07:52:47.343Z,84.40
2022-12-11T07:55:13.825Z,83.45
2022-12-11T07:57:40.613Z,83.03
2022-12-11T08:00:07.689Z,82.63
2022-12-11T08:02:37.235Z,82.86
2022-12-11T08:05:04.531Z,83.43
2022-12-11T08:07:30.893Z,82.53
2022-12-11T08:09:57.224Z,82.20
2022-12-11T08:12:23.594Z,82.31
2022-12-11T08:14:49.955Z,81.77
2022-12-11T08:17:16.306Z,82.56
2022-12-11T08:19:42.705Z,82.40
2022-12-11T08:22:13.204Z,83.29
2022-12-11T08:24:39.635Z,83.57
2022-12-11T08:27:08.494Z,82.31
2022-12-11T08:29:34.850Z,81.73
2022-12-11T08:32:01.339Z,83.23
2022-12-11T08:34:27.716Z,82.85
2022-12-11T08:36:54.109Z,83.08
2022-12-11T08:39:20.460Z,82.53
2022-12-11T08:41:46.923Z,82.30
2022-12-11T08:44:16.625Z,81.39
2022-12-11T08:46:43.872Z,82.03
2022-12-11T08:49:10.379Z,82.31
2022-12-11T08:51:36.726Z,82.16
2022-12-11T08:54:03.218Z,81.90
2022-12-11T08:56:30.385Z,82.93
2022-12-11T08:59:00.576Z,82.05
2022-12-11T09:01:27.858Z,82.88
2022-12-11T09:03:56.493Z,82.85
2022-12-11T09:06:25.516Z,83.17
2022-12-11T09:08:53.507Z,82.78
2022-12-11T09:11:23.861Z,83.15
2022-12-11T09:13:50.527Z,83.47
2022-12-11T09:16:18.985Z,83.22
2022-12-11T09:18:47.331Z,81.66
2022-12-11T09:21:18.494Z,83.01
2022-12-11T09:23:45.896Z,83.48
2022-12-11T09:26:15.530Z,82.59
2022-12-11T09:28:46.510Z,82.91
2022-12-11T09:31:16.536Z,82.45
2022-12-11T09:33:43.639Z,82.44
2022-12-11T09:36:10.706Z,82.60
2022-12-11T09:38:37.502Z,81.29
2022-12-11T09:41:21.921Z,81.12
2022-12-11T09:44:03.574Z,80.78
2022-12-11T09:46:34.354Z,81.36
2022-12-11T09:49:03.048Z,82.51
2022-12-11T09:51:47.788Z,81.21
2022-12-11T09:54:15.074Z,81.42
2022-12-11T09:56:57.328Z,80.42
2022-12-11T09:59:43.330Z,80.10
2022-12-11T10:02:35.576Z,80.48
2022-12-11T10:05:31.224Z,80.35
2022-12-11T10:08:05.641Z,80.90
2022-12-11T10:10:51.224Z,80.82
2022-12-11T10:13:54.741Z,81.11
2022-12-11T10:16:32.131Z,81.06
2022-12-11T10:18:58.582Z,80.78
2022-12-11T10:21:26.293Z,80.45
2022-12-11T10:23:58.325Z,80.45
2022-12-11T10:26:24.793Z,79.78
2022-12-11T10:28:51.275Z,80.06
2022-12-11T10:31:49.509Z,80.32
2022-12-11T10:34:28.517Z,80.64
2022-12-11T10:37:00.312Z,79.56
2022-12-11T10:39:26.953Z,80.45
2022-12-11T10:41:55.239Z,79.14
2022-12-11T10:44:21.539Z,79.90
2022-12-11T10:47:01.447Z,79.91
2022-12-11T10:49:30.480Z,80.32
2022-12-11T10:51:58.225Z,80.10
2022-12-11T10:54:38.189Z,79.86
2022-12-11T10:57:07.496Z,79.67
2022-12-11T10:59:37.330Z,79.70
2022-12-11T11:02:06.468Z,79.87
2022-12-11T11:04:36.859Z,80.01
2022-12-11T11:07:12.902Z,80.38
2022-12-11T11:09:40.065Z,79.83
2022-12-11T11:12:22.009Z,78.95
2022-12-11T11:15:05.879Z,78.72
2022-12-11T11:17:35.388Z,78.03
2022-12-11T11:20:12.852Z,78.05
2022-12-11T11:22:45.315Z,78.19
2022-12-11T11:25:26.413Z,79.63
2022-12-11T11:28:02.392Z,78.97
2022-12-11T11:30:31.717Z,78.33
2022-12-11T11:33:02.242Z,78.83
2022-12-11T11:35:31.213Z,77.92
2022-12-11T11:38:18.507Z,77.77
2022-12-11T11:40:49.830Z,78.27
2022-12-11T11:43:29.123Z,77.71
2022-12-11T11:46:02.631Z,77.91
2022-12-11T11:48:53.667Z,78.34
2022-12-11T11:51:27.152Z,78.11
2022-12-11T11:53:57.917Z,78.66
2022-12-11T11:56:36.224Z,78.13
2022-12-11T11:59:25.123Z,78.33
2022-12-11T12:01:55.433Z,78.18
2022-12-11T12:04:22.486Z,78.53
2022-12-11T12:06:57.895Z,78.64
2022-12-11T12:09:53.376Z,78.48
2022-12-11T12:12:45.321Z,78.08
2022-12-11T12:15:34.839Z,78.63
2022-12-11T12:18:11.908Z,78.34
2022-12-11T12:20:51.944Z,78.17
2022-12-11T12:23:53.830Z,78.11
2022-12-11T12:26:32.380Z,78.63
2022-12-11T12:29:28.708Z,78.85
2022-12-11T12:32:25.157Z,78.93
2022-12-11T12:35:23.361Z,78.62
2022-12-11T12:38:03.470Z,78.94
2022-12-11T12:40:35.108Z,79.17
2022-12-11T12:43:36.637Z,79.85
2022-12-11T12:46:22.733Z,79.00
2022-12-11T12:48:51.838Z,79.27
2022-12-11T12:51:18.930Z,79.49
2022-12-11T12:54:01.436Z,78.92
2022-12-11T12:56:31.756Z,79.03
2022-12-11T12:58:58.297Z,79.48
2022-12-11T13:01:27.351Z,78.92
2022-12-11T13:04:04.433Z,79.71
2022-12-11T13:06:37.796Z,78.88
2022-12-11T13:09:15.006Z,78.18
2022-12-11T13:11:41.766Z,77.20
2022-12-11T13:14:27.927Z,79.24
2022-12-11T13:17:06.077Z,79.83
2022-12-11T13:19:39.160Z,79.82
2022-12-11T13:22:14.681Z,79.91
2022-12-11T13:24:57.218Z,81.10
2022-12-11T13:27:35.693Z,80.48
2022-12-11T13:30:26.084Z,80.19
2022-12-11T13:33:03.394Z,80.66
2022-12-11T13:35:31.487Z,79.36
2022-12-11T13:38:04.316Z,79.23
2022-12-11T13:40:42.866Z,79.20
2022-12-11T13:43:18.391Z,79.14
2022-12-11T13:45:54.750Z,79.31
2022-12-11T13:48:28.876Z,79.94
2022-12-11T13:50:56.812Z,80.10
2022-12-11T13:53:23.847Z,79.52
2022-12-11T13:55:59.155Z,79.37
2022-12-11T13:58:25.853Z,79.54
2022-12-11T14:01:11.390Z,80.21
2022-12-11T14:03:54.436Z,80.87
2022-12-11T14:06:21.297Z,80.74
2022-12-11T14:08:55.087Z,80.99
2022-12-11T14:11:24.808Z,80.09
2022-12-11T14:13:51.192Z,81.64
2022-12-11T14:16:23.429Z,81.12
2022-12-11T14:18:51.881Z,80.90
2022-12-11T14:21:20.727Z,80.90
2022-12-11T14:24:03.360Z,80.63
2022-12-11T14:26:34.245Z,80.87
2022-12-11T14:29:01.026Z,81.19
2022-12-11T14:31:39.764Z,81.61
2022-12-11T14:34:12.250Z,82.43
2022-12-11T14:36:39.556Z,82.59
2022-12-11T14:39:12.405Z,83.40
2022-12-11T14:41:45.960Z,83.91
2022-12-11T14:44:17.708Z,84.19
2022-12-11T14:46:48.739Z,83.74
2022-12-11T14:49:26.765Z,83.91
2022-12-11T14:51:57.229Z,83.90
2022-12-11T14:54:51.295Z,84.46
2022-12-11T14:57:21.379Z,84.80
2022-12-11T14:59:51.236Z,84.33
2022-12-11T15:02:28.481Z,83.92
2022-12-11T15:05:19.935Z,83.96
2022-12-11T15:07:57.402Z,84.47
2022-12-11T15:10:31.422Z,84.33
2022-12-11T15:12:59.047Z,83.59
2022-12-11T15:15:28.148Z,83.85
2022-12-11T15:18:16.457Z,83.18
2022-12-11T15:20:42.879Z,84.01
2022-12-11T15:23:11.815Z,82.96
2022-12-11T15:25:50.955Z,83.41
2022-12-11T15:28:47.000Z,83.26
2022-12-11T15:31:32.231Z,82.92
2022-12-11T15:33:59.209Z,81.99
2022-12-11T15:36:32.165Z,81.73
2022-12-11T15:38:58.881Z,82.13
2022-12-11T15:41:25.802Z,82.97
2022-12-11T15:43:58.505Z,82.83
2022-12-11T15:46:25.706Z,82.81
2022-12-11T15:48:52.214Z,83.30
2022-12-11T15:51:18.699Z,82.57
2022-12-11T15:53:45.071Z,82.78
2022-12-11T15:56:17.572Z,82.84
2022-12-11T15:58:46.330Z,83.29
2022-12-11T16:01:12.716Z,82.32
2022-12-11T16:03:39.122Z,82.08
2022-12-11T16:06:05.711Z,82.63
2022-12-11T16:08:32.367Z,82.56
2022-12-11T16:10:58.843Z,82.53
2022-12-11T16:13:25.276Z,82.61
2022-12-11T16:15:51.932Z,81.54
2022-12-11T16:18:21.886Z,82.54
2022-12-11T16:20:48.891Z,82.27
2022-12-11T16:23:17.141Z,81.91
2022-12-11T16:25:45.592Z,81.79
2022-12-11T16:28:14.039Z,82.21
2022-12-11T16:30:40.856Z,82.46
2022-12-11T16:33:12.488Z,82.54
2022-12-11T16:35:40.095Z,82.73
2022-12-11T16:38:08.036Z,83.02
2022-12-11T16:40:34.733Z,82.65
2022-12-11T16:43:01.348Z,82.76
2022-12-11T16:45:28.080Z,82.34
2022-12-11T16:47:55.035Z,83.19
2022-12-11T16:50:22.444Z,83.79
2022-12-11T16:52:49.772Z,83.92
2022-12-11T16:55:16.569Z,82.93
2022-12-11T16:57:43.337Z,83.18
2022-12-11T17:00:14.532Z,83.40
2022-12-11T17:02:41.263Z,83.48
2022-12-11T17:05:08.237Z,83.15
2022-12-11T17:07:34.757Z,82.73
2022-12-11T17:10:02.957Z,83.31
2022-12-11T17:12:32.835Z,83.47
2022-12-11T17:14:59.918Z,82.86
2022-12-11T17:17:26.573Z,83.45
2022-12-11T17:19:52.970Z,83.55
2022-12-11T17:22:19.446Z,83.20
2022-12-11T17:24:45.838Z,83.65
2022-12-11T17:27:12.369Z,82.55
2022-12-11T17:29:38.833Z,82.67
2022-12-11T17:32:05.583Z,82.25
2022-12-11T17:34:37.930Z,83.21
2022-12-11T17:37:05.326Z,83.03
2022-12-11T17:39:31.841Z,82.85
2022-12-11T17:41:58.273Z,82.96
2022-12-11T17:44:26.461Z,83.60
2022-12-11T17:46:52.989Z,83.30
2022-12-11T17:49:19.756Z,82.87
2022-12-11T17:51:46.189Z,84.00
2022-12-11T17:54:12.585Z,83.83
2022-12-11T17:56:39.091Z,83.78
2022-12-11T17:59:05.504Z,83.42
2022-12-11T18:01:32.673Z,84.34
2022-12-11T18:04:01.416Z,84.20
2022-12-11T18:06:28.441Z,84.17
2022-12-11T18:08:54.833Z,83.72
2022-12-11T18:11:21.709Z,84.33
2022-12-11T18:13:49.279Z,83.80
2022-12-11T18:16:28.259Z,83.19
2022-12-11T18:18:54.887Z,82.64
2022-12-11T18:21:24.750Z,82.62
2022-12-11T18:23:51.742Z,82.78
2022-12-11T18:26:19.967Z,83.63
2022-12-11T18:28:47.961Z,82.41
2022-12-11T18:31:15.157Z,82.91
2022-12-11T18:33:43.676Z,82.78
2022-12-11T18:36:11.947Z,83.53
2022-12-11T18:38:39.658Z,83.03
2022-12-11T18:41:07.792Z,83.25
2022-12-11T18:43:34.693Z,82.91
2022-12-11T18:46:05.355Z,83.22
2022-12-11T18:48:31.765Z,83.29
2022-12-11T18:50:58.126Z,82.75
2022-12-11T18:53:24.480Z,83.46
2022-12-11T18:55:53.485Z,83.56
2022-12-11T18:58:23.740Z,83.14
2022-12-11T19:00:50.238Z,83.59
2022-12-11T19:03:16.592Z,83.56
2022-12-11T19:05:43.792Z,83.64
2022-12-11T19:08:13.696Z,84.28
2022-12-11T19:10:42.624Z,84.00
2022-12-11T19:13:09.171Z,83.75
2022-12-11T19:15:41.444Z,83.28
2022-12-11T19:18:08.097Z,83.39
2022-12-11T19:20:55.624Z,83.48
2022-12-11T19:23:30.180Z,82.86
2022-12-11T19:25:56.555Z,82.85
2022-12-11T19:28:22.913Z,83.30
2022-12-11T19:30:49.701Z,82.94
2022-12-11T19:33:16.743Z,83.61
2022-12-11T19:35:43.157Z,84.15
2022-12-11T19:38:09.585Z,84.58
2022-12-11T19:40:43.599Z,84.34
2022-12-11T19:43:10.345Z,84.48
2022-12-11T19:45:37.380Z,84.17
2022-12-11T19:48:04.243Z,84.64
2022-12-11T19:50:30.696Z,85.40
2022-12-11T19:52:57.040Z,85.29
2022-12-11T19:55:23.417Z,84.84
2022-12-11T19:57:49.821Z,85.58
2022-12-11T20:00:16.465Z,85.41
2022-12-11T20:02:42.995Z,85.00
2022-12-11T20:05:10.040Z,85.56
2022-12-11T20:07:36.982Z,86.02
2022-12-11T20:10:03.607Z,85.39
2022-12-11T20:12:30.139Z,85.53
2022-12-11T20:14:56.469Z,85.97
2022-12-11T20:17:22.953Z,86.24
2022-12-11T20:19:49.332Z,85.91
2022-12-11T20:22:15.681Z,86.08
2022-12-11T20:24:42.052Z,85.94
2022-12-11T20:27:09.407Z,85.61
2022-12-11T20:29:35.833Z,85.68
2022-12-11T20:32:02.270Z,86.36
2022-12-11T20:34:28.692Z,85.35
2022-12-11T20:36:56.178Z,85.52
2022-12-11T20:39:22.841Z,86.45
2022-12-11T20:41:49.438Z,85.95
2022-12-11T20:44:15.853Z,86.04
2022-12-11T20:46:42.211Z,85.77
2022-12-11T20:49:12.771Z,85.68
2022-12-11T20:51:40.141Z,85.68
2022-12-11T20:54:06.626Z,85.61
2022-12-11T20:56:33.049Z,85.68
2022-12-11T20:59:00.749Z,85.10
2022-12-11T21:01:30.026Z,85.42
2022-12-11T21:03:57.250Z,85.39
2022-12-11T21:06:32.669Z,85.60
2022-12-11T21:09:01.681Z,85.54
2022-12-11T21:11:28.153Z,85.87
2022-12-11T21:13:55.109Z,85.97
2022-12-11T21:16:22.118Z,85.95
2022-12-11T21:18:48.963Z,85.50
2022-12-11T21:21:16.520Z,85.85
2022-12-11T21:23:43.593Z,85.92
2022-12-11T21:26:10.156Z,85.53
2022-12-11T21:28:36.551Z,85.30
2022-12-11T21:31:14.368Z,85.43
2022-12-11T21:33:40.838Z,85.62
2022-12-11T21:36:09.151Z,86.04
2022-12-11T21:38:35.501Z,85.77
2022-12-11T21:41:13.505Z,85.95
2022-12-11T21:44:00.495Z,86.23
2022-12-11T21:46:28.225Z,85.78
2022-12-11T21:48:54.954Z,86.42
2022-12-11T21:51:34.080Z,85.95
2022-12-11T21:54:04.093Z,86.65
2022-12-11T21:56:31.912Z,85.95
2022-12-11T21:58:58.435Z,86.02
2022-12-11T22:01:27.741Z,85.59
2022-12-11T22:03:54.553Z,85.24
2022-12-11T22:06:21.218Z,85.94
2022-12-11T22:08:49.132Z,85.86
2022-12-11T22:11:21.583Z,86.07
2022-12-11T22:13:48.086Z,85.78
2022-12-11T22:16:14.603Z,85.34
2022-12-11T22:18:41.167Z,84.92
2022-12-11T22:21:07.637Z,85.23
2022-12-11T22:23:34.016Z,84.51
2022-12-11T22:26:00.556Z,84.68
2022-12-11T22:28:27.677Z,84.92
2022-12-11T22:30:54.254Z,84.73
2022-12-11T22:33:20.706Z,85.14
2022-12-11T22:35:47.170Z,85.00
2022-12-11T22:38:13.533Z,85.82
2022-12-11T22:40:41.450Z,85.10
2022-12-11T22:43:07.876Z,85.32
2022-12-11T22:45:38.781Z,85.69
2022-12-11T22:48:06.252Z,85.89
2022-12-11T22:50:32.800Z,86.16
2022-12-11T22:52:59.139Z,85.70
2022-12-11T22:55:25.946Z,85.73
2022-12-11T22:57:52.292Z,86.25
2022-12-11T23:00:18.934Z,86.50
2022-12-11T23:02:45.410Z,86.76
2022-12-11T23:05:12.409Z,86.49
2022-12-11T23:07:39.422Z,86.78
2022-12-11T23:10:08.053Z,87.04
2022-12-11T23:12:35.229Z,87.05
2022-12-11T23:15:02.531Z,87.17
2022-12-11T23:17:29.017Z,86.67
2022-12-11T23:19:55.419Z,87.17
2022-12-11T23:22:21.775Z,87.38
2022-12-11T23:24:48.293Z,86.93
2022-12-11T23:27:15.246Z,86.88
2022-12-11T23:29:41.901Z,86.88
2022-12-11T23:32:08.265Z,87.11
2022-12-11T23:34:34.615Z,86.95
2022-12-11T23:37:00.987Z,87.08
2022-12-11T23:39:27.361Z,88.06
2022-12-11T23:41:53.746Z,87.84
2022-12-11T23:44:20.078Z,87.52
2022-12-11T23:46:46.443Z,87.25
2022-12-11T23:49:12.780Z,87.29
2022-12-11T23:51:39.144Z,87.47
2022-12-11T23:54:05.637Z,86.87
2022-12-11T23:56:32.083Z,86.68
2022-12-11T23:58:59.261Z,87.05
